aviador You're here:

YWGT Decoded Metar

WANGARATTA ARP in _UNIDENTIFIED
Report Time2017-07-23 06:00:00
UTC Time2017-07-23 06:53:27
Flight Rules vfr VFR
Wind010° at 07 kt
W.Decomp.*RWY 36: 7.0 kt HW 0.1 kt LCW
RWY 27: 0.1 kt HW 7.0 kt RCW
W.Rank010° ranks 7
Current wind is below 010° avg. (7.6)
Visibility9999 m
Phenomena:N/A
Clouds:Broken 073 Hf
Expected CloudBase > 2,800 ft AGL from Temp-Dew spread
Ceiling7,300 ft
Temp13°C (ISA -1)
Dew Point06°C (63% RH)
AAT9.6°C
QNH1014 hPa
Density Alt479 ft
Elevation502 ft
Report Wrong Elevation
Raw Report
YWGT 230600Z AUTO 01007KT 9999 // BKN073 13/06 Q1014=

Extra information for YWGT:More info

Metar Taf Metar & Taf Last 4 Metars F.Rules Stats Wind Profile Meteogram Temp Stats Airport Information Weather charts Add Link Nearby VenuesMetar ALERT Operation Metar Decoded Social comments